Main page
METAR-TAF:

METAR-TAF

Airports :

Benin Airport

Benin City, Nigeria

latitude: 6-19N, longitude: 5-36E, elevation: 79 m

METAR: missing

Time: 16:48 (15:48 UTC)

Forecast

The report was made 28 hours and 48 minutes ago, at 11:00 UTC
Forecast valid from 21 at 12 UTC to 22 at 18 UTC
Wind 2 kt from variable directions
Visibility: 3000 m
haze
Temporary
from 22 at 06 UTC to 22 at 08 UTC
Visibility: 1500 m

TAF: DNBE 211100Z 2112/2218 VRB02KT 3000 HZ NSC TEMPO 2206/2208 1500

Weather observations and forecasts of more than 4000 airports (METAR and TAF reports).

The available stations are represented by yellow and red dots on the map.

Hover mouse over dot to see the name of the station.

Then click to see weather observations and forecasts.

To change the map : click on the green buttons with a black cross to zoom in, on the green button with a dash to zoom out, or on the green arrows for adjacent maps.


METAR-TAF: